Time;durP1;ratioP1;P1;durP2;ratioP2;P2;SDS_P1;SDS_P2;PMS_P1;PMS_P2;Temp;Humidity;BMP_temperature;BMP_pressure;BME280_temperature;BME280_humidity;BME280_pressure;Samples;Min_cycle;Max_cycle;Signal;HPM_P1;HPM_P2
2023/03/27 00:01:24;;;;;;;18.80;11.00;;;;;;;7.01;100.00;96393.91;108783;1254;59801;-78
2023/03/27 00:03:52;;;;;;;20.20;11.80;;;;;;;7.05;100.00;96389.24;109055;1254;60467;-77
2023/03/27 00:06:19;;;;;;;16.90;9.00;;;;;;;7.09;100.00;96391.77;109066;1254;75610;-79
2023/03/27 00:08:47;;;;;;;18.30;10.40;;;;;;;7.11;100.00;96387.27;108876;1254;71493;-78
2023/03/27 00:11:13;;;;;;;16.20;8.80;;;;;;;7.12;100.00;96386.33;109073;1254;71621;-78
2023/03/27 00:13:40;;;;;;;16.70;8.40;;;;;;;7.14;100.00;96391.61;109088;1254;60340;-77
2023/03/27 00:16:07;;;;;;;16.90;8.20;;;;;;;7.17;100.00;96393.39;109307;1254;60431;-79
2023/03/27 00:18:35;;;;;;;14.50;7.70;;;;;;;7.19;100.00;96392.08;109288;1257;75055;-80
2023/03/27 00:21:02;;;;;;;16.60;8.70;;;;;;;7.21;100.00;96391.29;109129;1260;70939;-79
2023/03/27 00:23:28;;;;;;;16.90;7.60;;;;;;;7.20;100.00;96388.46;109101;1257;71200;-78
2023/03/27 00:25:56;;;;;;;13.50;8.40;;;;;;;7.19;100.00;96387.43;108964;1257;60079;-80
2023/03/27 00:28:26;;;;;;;15.90;9.20;;;;;;;7.20;100.00;96383.23;108874;1256;60312;-79
2023/03/27 00:30:53;;;;;;;17.70;8.70;;;;;;;7.22;100.00;96381.95;108882;1257;75059;-79
2023/03/27 00:33:20;;;;;;;14.00;8.30;;;;;;;7.25;100.00;96379.18;108906;1257;70141;-79
2023/03/27 00:35:47;;;;;;;13.90;7.60;;;;;;;7.26;100.00;96380.77;108896;1256;72932;-79
2023/03/27 00:38:14;;;;;;;16.60;10.40;;;;;;;7.24;100.00;96378.23;108893;1257;60940;-79
2023/03/27 00:40:42;;;;;;;14.80;10.30;;;;;;;7.23;100.00;96379.23;108916;1256;60330;-80
2023/03/27 00:43:26;;;;;;;25.50;14.20;;;;;;;7.22;100.00;96379.41;108885;1256;76510;-77
2023/03/27 00:46:34;;;;;;;37.00;18.50;;;;;;;7.16;100.00;96373.79;108928;1257;70777;-80
2023/03/27 00:49:02;;;;;;;27.20;14.00;;;;;;;7.12;100.00;96368.17;108878;1257;72537;-77
2023/03/27 00:51:30;;;;;;;37.50;14.10;;;;;;;7.07;100.00;96358.55;108838;1257;60061;-79
2023/03/27 00:53:56;;;;;;;32.20;15.00;;;;;;;7.00;100.00;96357.61;109004;1257;60836;-79
2023/03/27 00:56:22;;;;;;;19.60;9.80;;;;;;;6.99;100.00;96352.23;109013;1257;60127;-78
2023/03/27 00:58:51;;;;;;;13.90;8.40;;;;;;;6.98;100.00;96352.58;109239;1254;59711;-77
2023/03/27 01:01:18;;;;;;;16.70;8.30;;;;;;;6.95;100.00;96341.80;109161;1254;72758;-79
2023/03/27 01:03:45;;;;;;;13.50;9.20;;;;;;;6.93;100.00;96339.38;109110;1254;59763;-77
2023/03/27 01:06:12;;;;;;;15.60;9.90;;;;;;;6.92;100.00;96339.65;109291;1254;59840;-78
2023/03/27 01:08:39;;;;;;;17.40;10.30;;;;;;;6.87;100.00;96337.64;109201;1254;76147;-79
2023/03/27 01:11:43;;;;;;;13.60;11.10;;;;;;;6.87;100.00;96336.52;108890;1254;60503;-79
2023/03/27 01:14:19;;;;;;;12.00;6.80;;;;;;;6.85;100.00;96334.03;109272;1254;71344;-80
2023/03/27 01:17:05;;;;;;;21.00;11.80;;;;;;;6.82;100.00;96328.63;109307;1254;59860;-77
2023/03/27 01:19:59;;;;;;;62.40;28.10;;;;;;;6.82;100.00;96326.85;109002;1256;59808;-77
2023/03/27 01:22:48;;;;;;;32.80;18.00;;;;;;;6.81;100.00;96321.74;109129;1257;75630;-77
2023/03/27 01:25:36;;;;;;;29.10;12.50;;;;;;;6.85;100.00;96316.73;109152;1256;70608;-78
2023/03/27 01:28:21;;;;;;;19.30;9.50;;;;;;;6.90;100.00;96313.19;109085;1256;72750;-79
2023/03/27 01:31:16;;;;;;;15.50;9.20;;;;;;;6.91;100.00;96307.40;108905;1255;59980;-77
2023/03/27 01:34:02;;;;;;;13.20;8.30;;;;;;;6.92;100.00;96307.17;108932;1255;60210;-80
2023/03/27 01:36:47;;;;;;;11.60;7.90;;;;;;;6.93;100.00;96303.35;108883;1257;75665;-80
2023/03/27 01:39:53;;;;;;;11.40;7.50;;;;;;;6.94;100.00;96307.52;108957;1256;69705;-77
2023/03/27 01:43:27;;;;;;;12.40;7.70;;;;;;;6.95;100.00;96299.70;108451;1263;71798;-79
2023/03/27 01:45:56;;;;;;;7.80;6.00;;;;;;;6.95;100.00;96296.40;108226;1263;59965;-78
2023/03/27 01:48:36;;;;;;;14.20;10.10;;;;;;;6.95;100.00;96297.80;108679;1260;163904;-80
2023/03/27 01:51:15;;;;;;;10.10;7.30;;;;;;;6.92;100.00;96293.17;108899;1257;75890;-79
2023/03/27 01:54:06;;;;;;;9.30;7.30;;;;;;;6.93;100.00;96288.38;108896;1259;70522;-79
2023/03/27 01:56:36;;;;;;;9.90;6.40;;;;;;;6.94;100.00;96284.80;108826;1257;72593;-78
2023/03/27 01:59:10;;;;;;;10.20;6.40;;;;;;;6.94;100.00;96282.33;108835;1257;60237;-77
2023/03/27 02:01:37;;;;;;;13.80;8.30;;;;;;;6.95;100.00;96280.41;109135;1256;59882;-78
2023/03/27 02:04:06;;;;;;;11.50;7.80;;;;;;;6.96;100.00;96273.83;108985;1257;75078;-77
2023/03/27 02:06:38;;;;;;;12.60;6.80;;;;;;;6.95;100.00;96265.70;109006;1257;71012;-80
2023/03/27 02:09:08;;;;;;;12.40;7.10;;;;;;;6.94;100.00;96267.85;108999;1257;72844;-79
2023/03/27 02:11:37;;;;;;;12.30;8.80;;;;;;;6.93;100.00;96262.58;109105;1257;59912;-78
2023/03/27 02:14:05;;;;;;;13.10;8.10;;;;;;;6.89;100.00;96262.71;108958;1255;59645;-78
2023/03/27 02:16:33;;;;;;;12.60;8.10;;;;;;;6.85;100.00;96262.57;108827;1257;73703;-78
2023/03/27 02:19:10;;;;;;;14.70;8.60;;;;;;;6.81;100.00;96259.50;108886;1256;70113;-78
2023/03/27 02:21:36;;;;;;;14.70;9.60;;;;;;;6.77;100.00;96261.56;108902;1257;72555;-80
2023/03/27 02:24:04;;;;;;;10.40;7.60;;;;;;;6.74;100.00;96264.90;108880;1255;60262;-79
2023/03/27 02:26:31;;;;;;;13.30;9.50;;;;;;;6.73;100.00;96265.58;108885;1257;59870;-79
2023/03/27 02:29:03;;;;;;;14.60;7.60;;;;;;;6.71;100.00;96271.92;108777;1256;74625;-79
2023/03/27 02:31:50;;;;;;;12.90;8.00;;;;;;;6.67;100.00;96267.69;108902;1257;71299;-78
2023/03/27 02:34:24;;;;;;;11.40;8.40;;;;;;;6.62;100.00;96269.38;108879;1257;72017;-78
2023/03/27 02:37:03;;;;;;;13.00;8.70;;;;;;;6.60;100.00;96265.98;108897;1257;59867;-79
2023/03/27 02:39:49;;;;;;;;;;;;;;;6.60;100.00;96268.30;109111;1257;60440;-80
2023/03/27 02:42:30;;;;;;;16.50;10.60;;;;;;;6.62;100.00;96272.83;109116;1257;74860;-78
2023/03/27 02:45:14;;;;;;;16.30;12.20;;;;;;;6.64;100.00;96278.51;109000;1256;70336;-80
2023/03/27 02:48:26;;;;;;;16.00;12.30;;;;;;;6.64;100.00;96280.59;108991;1257;72934;-79
2023/03/27 02:51:06;;;;;;;12.40;7.50;;;;;;;6.63;100.00;96275.93;109019;1255;59704;-78
2023/03/27 02:53:36;;;;;;;40.00;18.30;;;;;;;6.64;100.00;96281.71;109010;1257;60412;-79
2023/03/27 02:56:03;;;;;;;22.70;13.30;;;;;;;6.62;100.00;96275.95;109012;1254;74791;-79
2023/03/27 02:58:34;;;;;;;27.80;11.50;;;;;;;6.59;100.00;96278.48;109037;1254;70414;-78
2023/03/27 03:01:00;;;;;;;19.40;11.00;;;;;;;6.57;100.00;96283.04;109025;1254;71484;-79
2023/03/27 03:03:33;;;;;;;17.50;8.70;;;;;;;6.56;100.00;96285.14;109288;1254;59635;-79
2023/03/27 03:06:05;;;;;;;12.80;7.90;;;;;;;6.57;100.00;96290.09;109069;1254;60261;-78
2023/03/27 03:08:37;;;;;;;10.50;5.50;;;;;;;6.58;100.00;96291.52;109202;1254;74874;-78
2023/03/27 03:11:05;;;;;;;8.40;4.90;;;;;;;6.58;100.00;96294.59;109113;1254;69755;-79
2023/03/27 03:13:32;;;;;;;8.40;5.00;;;;;;;6.58;100.00;96300.61;109301;1254;71381;-78
2023/03/27 03:15:58;;;;;;;13.40;7.80;;;;;;;6.59;100.00;96300.77;109101;1254;59642;-79
2023/03/27 03:18:25;;;;;;;14.80;8.00;;;;;;;6.60;100.00;96295.48;109313;1254;59699;-79
2023/03/27 03:20:52;;;;;;;13.30;7.60;;;;;;;6.59;100.00;96298.14;109103;1256;74506;-78
2023/03/27 03:23:20;;;;;;;16.00;10.90;;;;;;;6.52;100.00;96299.52;108928;1256;70557;-77
2023/03/27 03:25:49;;;;;;;21.50;15.40;;;;;;;6.48;100.00;96295.73;109125;1255;72540;-78
2023/03/27 03:28:17;;;;;;;18.90;15.10;;;;;;;6.47;100.00;96294.61;109064;1257;59812;-79
2023/03/27 03:30:46;;;;;;;18.10;12.40;;;;;;;6.47;100.00;96295.58;108987;1256;59666;-81
2023/03/27 03:33:13;;;;;;;18.60;12.80;;;;;;;6.46;100.00;96288.77;108895;1257;74460;-80
2023/03/27 03:35:39;;;;;;;17.50;12.70;;;;;;;6.45;100.00;96286.90;108903;1256;60496;-79
2023/03/27 03:38:05;;;;;;;20.90;12.30;;;;;;;6.45;100.00;96284.96;109051;1256;59799;-78
2023/03/27 03:40:32;;;;;;;15.90;12.30;;;;;;;6.44;100.00;96284.48;109122;1255;59708;-78
2023/03/27 03:42:58;;;;;;;17.90;12.30;;;;;;;6.44;100.00;96284.86;109027;1255;59910;-78
2023/03/27 03:45:25;;;;;;;20.60;13.10;;;;;;;6.42;100.00;96287.17;108932;1255;60745;-79
2023/03/27 03:47:51;;;;;;;22.70;15.50;;;;;;;6.43;100.00;96287.38;108909;1254;60542;-78
2023/03/27 03:50:17;;;;;;;22.50;13.70;;;;;;;6.45;100.00;96286.05;108985;1254;59914;-78
2023/03/27 03:52:44;;;;;;;22.40;13.90;;;;;;;6.48;100.00;96293.58;108995;1254;59940;-80
2023/03/27 03:55:11;;;;;;;17.10;12.30;;;;;;;6.49;100.00;96288.34;108814;1256;60966;-79
2023/03/27 03:57:38;;;;;;;29.70;16.40;;;;;;;6.47;100.00;96282.61;108868;1256;60125;-78
2023/03/27 04:00:07;;;;;;;47.10;23.80;;;;;;;6.45;100.00;96283.02;108993;1254;60288;-77
2023/03/27 04:02:35;;;;;;;49.70;21.90;;;;;;;6.43;100.00;96279.73;109043;1254;72934;-79
2023/03/27 04:05:03;;;;;;;25.00;13.20;;;;;;;6.43;100.00;96277.38;109020;1254;60150;-79
2023/03/27 04:07:34;;;;;;;20.70;11.60;;;;;;;6.41;100.00;96277.34;109070;1254;60530;-78
2023/03/27 04:10:02;;;;;;;15.20;10.10;;;;;;;6.41;100.00;96280.56;109071;1254;74783;-78
2023/03/27 04:12:29;;;;;;;26.50;17.30;;;;;;;6.40;100.00;96283.96;109200;1254;71246;-77
2023/03/27 04:14:55;;;;;;;16.10;11.30;;;;;;;6.40;100.00;96277.29;108864;1254;72522;-79
2023/03/27 04:17:25;;;;;;;26.50;16.50;;;;;;;6.41;100.00;96275.94;109069;1254;60426;-79
2023/03/27 04:19:54;;;;;;;34.60;19.10;;;;;;;6.38;100.00;96273.11;108946;1255;59785;-79
2023/03/27 04:22:22;;;;;;;25.60;14.10;;;;;;;6.38;100.00;96269.70;108912;1256;73405;-78
2023/03/27 04:24:49;;;;;;;21.10;13.70;;;;;;;6.38;100.00;96270.61;108913;1256;70733;-78
2023/03/27 04:27:16;;;;;;;18.70;12.50;;;;;;;6.39;100.00;96276.16;108904;1255;71978;-78
2023/03/27 04:29:46;;;;;;;23.60;14.30;;;;;;;6.40;100.00;96276.10;108888;1256;60094;-80
2023/03/27 04:32:17;;;;;;;25.80;17.00;;;;;;;6.41;100.00;96276.25;108940;1255;60887;-79
2023/03/27 04:34:45;;;;;;;34.40;21.20;;;;;;;6.45;100.00;96276.03;109016;1255;76121;-79
2023/03/27 04:37:11;;;;;;;28.30;16.40;;;;;;;6.48;100.00;96273.81;108926;1256;70364;-78
2023/03/27 04:39:45;;;;;;;21.70;14.00;;;;;;;6.49;100.00;96273.17;108909;1255;71028;-79
2023/03/27 04:42:12;;;;;;;24.30;14.90;;;;;;;6.53;100.00;96270.09;108960;1255;60334;-79
2023/03/27 04:44:39;;;;;;;20.50;15.10;;;;;;;6.55;100.00;96273.12;108912;1255;59995;-78
2023/03/27 04:47:06;;;;;;;21.20;15.00;;;;;;;6.54;100.00;96273.45;108832;1256;74694;-77
2023/03/27 04:49:38;;;;;;;29.70;16.80;;;;;;;6.56;100.00;96274.75;108911;1255;71153;-80
2023/03/27 04:52:08;;;;;;;24.80;16.00;;;;;;;6.59;100.00;96274.46;108901;1255;72835;-80
2023/03/27 04:54:34;;;;;;;30.90;18.40;;;;;;;6.59;100.00;96267.73;108890;1255;60541;-79
2023/03/27 04:57:02;;;;;;;30.50;18.60;;;;;;;6.63;100.00;96266.78;108996;1254;60975;-79
2023/03/27 04:59:32;;;;;;;31.30;18.90;;;;;;;6.62;100.00;96263.83;109079;1254;74683;-78
2023/03/27 05:02:00;;;;;;;26.30;17.10;;;;;;;6.62;100.00;96258.73;109072;1254;69878;-78
2023/03/27 05:04:27;;;;;;;30.70;17.10;;;;;;;6.60;100.00;96258.39;109074;1254;73414;-79
2023/03/27 05:06:54;;;;;;;45.00;21.40;;;;;;;6.61;100.00;96262.94;109095;1254;60434;-79
2023/03/27 05:09:22;;;;;;;29.00;15.40;;;;;;;6.65;100.00;96266.27;109113;1255;60853;-78
2023/03/27 05:11:49;;;;;;;23.00;12.60;;;;;;;6.66;100.00;96272.00;108882;1254;73747;-79
2023/03/27 05:14:16;;;;;;;18.20;11.80;;;;;;;6.66;100.00;96279.55;108767;1255;71115;-80
2023/03/27 05:16:43;;;;;;;19.30;11.00;;;;;;;6.65;100.00;96282.41;108910;1255;71863;-79
2023/03/27 05:19:10;;;;;;;20.00;12.00;;;;;;;6.64;100.00;96281.55;108826;1256;59767;-77
2023/03/27 05:21:37;;;;;;;17.40;11.10;;;;;;;6.65;100.00;96279.28;108916;1255;60134;-77
2023/03/27 05:24:03;;;;;;;21.50;12.20;;;;;;;6.62;100.00;96278.36;108878;1256;74665;-79
2023/03/27 05:26:31;;;;;;;20.00;12.30;;;;;;;6.61;100.00;96279.30;108894;1255;70352;-77
2023/03/27 05:28:58;;;;;;;31.00;16.10;;;;;;;6.63;100.00;96279.01;108846;1256;73728;-79
2023/03/27 05:31:26;;;;;;;69.60;31.30;;;;;;;6.63;100.00;96280.78;108793;1255;60327;-79
2023/03/27 05:33:53;;;;;;;45.50;23.00;;;;;;;6.59;100.00;96279.89;108897;1255;60168;-77
2023/03/27 05:36:21;;;;;;;28.90;17.20;;;;;;;6.55;100.00;96283.98;108950;1255;75754;-79
2023/03/27 05:38:47;;;;;;;23.10;14.00;;;;;;;6.47;100.00;96288.15;108876;1255;70142;-79
2023/03/27 05:41:14;;;;;;;22.20;12.40;;;;;;;6.46;100.00;96288.80;108817;1254;60050;-79
2023/03/27 05:43:41;;;;;;;27.30;13.50;;;;;;;6.50;100.00;96291.12;108783;1256;60449;-79
2023/03/27 05:46:07;;;;;;;21.20;13.30;;;;;;;6.56;100.00;96294.14;108714;1255;60262;-77
2023/03/27 05:48:34;;;;;;;21.70;12.60;;;;;;;6.60;100.00;96300.91;108615;1256;60266;-78
2023/03/27 05:51:01;;;;;;;23.80;13.10;;;;;;;6.60;100.00;96303.45;108868;1254;72178;-80
2023/03/27 05:53:27;;;;;;;27.40;14.00;;;;;;;6.62;100.00;96307.08;108904;1255;60163;-77
2023/03/27 05:55:54;;;;;;;21.60;12.10;;;;;;;6.59;100.00;96303.63;108916;1255;59998;-78
2023/03/27 05:58:20;;;;;;;17.50;10.60;;;;;;;6.61;100.00;96305.36;108769;1256;60582;-79
2023/03/27 06:00:49;;;;;;;21.30;12.30;;;;;;;6.64;100.00;96307.89;108612;1255;73421;-79
2023/03/27 06:03:18;;;;;;;20.30;11.60;;;;;;;6.67;100.00;96307.40;108768;1255;70827;-79
2023/03/27 06:05:45;;;;;;;26.00;15.60;;;;;;;6.70;100.00;96304.34;108824;1255;72551;-80
2023/03/27 06:08:11;;;;;;;19.60;11.50;;;;;;;6.74;100.00;96303.95;108839;1254;60818;-80
2023/03/27 06:10:41;;;;;;;18.20;11.40;;;;;;;6.75;100.00;96307.42;108629;1256;60609;-79
2023/03/27 06:13:10;;;;;;;18.40;11.30;;;;;;;6.72;100.00;96307.79;108654;1258;74665;-78
2023/03/27 06:15:39;;;;;;;17.70;11.40;;;;;;;6.73;100.00;96313.48;108824;1259;70310;-78
2023/03/27 06:18:07;;;;;;;;;;;;;;;6.76;100.00;96314.15;108974;1256;73247;-79
2023/03/27 06:20:34;;;;;;;24.90;11.10;;;;;;;6.78;100.00;96316.59;109053;1255;59745;-77
2023/03/27 06:23:01;;;;;;;16.20;10.20;;;;;;;6.82;100.00;96318.33;109004;1255;60183;-78
2023/03/27 06:25:30;;;;;;;20.70;12.90;;;;;;;6.78;100.00;96318.89;109070;1256;75341;-78
2023/03/27 06:27:57;;;;;;;21.10;12.60;;;;;;;6.72;100.00;96322.77;108889;1255;70801;-79
2023/03/27 06:30:24;;;;;;;22.30;14.10;;;;;;;6.65;100.00;96324.88;108865;1256;72127;-78
2023/03/27 06:32:52;;;;;;;28.30;15.30;;;;;;;6.65;100.00;96330.36;108845;1256;60428;-77
2023/03/27 06:35:19;;;;;;;65.50;29.50;;;;;;;6.58;100.00;96331.84;108873;1255;60209;-79
2023/03/27 06:37:47;;;;;;;22.40;13.60;;;;;;;6.55;100.00;96338.78;108727;1256;75092;-78
2023/03/27 06:40:23;;;;;;;24.90;14.40;;;;;;;6.49;100.00;96341.23;108795;1256;70307;-79
2023/03/27 06:43:06;;;;;;;21.40;15.60;;;;;;;6.50;100.00;96342.89;108645;1256;72704;-79
2023/03/27 06:45:45;;;;;;;18.50;12.60;;;;;;;6.48;100.00;96342.43;108745;1255;60081;-76
2023/03/27 06:48:12;;;;;;;25.20;14.20;;;;;;;6.47;100.00;96349.02;108774;1256;60481;-79
2023/03/27 06:50:38;;;;;;;24.60;13.40;;;;;;;6.47;100.00;96347.51;108788;1255;76932;-79
2023/03/27 06:53:05;;;;;;;25.40;16.50;;;;;;;6.48;100.00;96352.55;108814;1255;60538;-77
2023/03/27 06:55:32;;;;;;;25.00;14.30;;;;;;;6.45;100.00;96354.55;108883;1255;71575;-77
2023/03/27 06:57:59;;;;;;;23.30;14.50;;;;;;;6.46;100.00;96357.60;108891;1255;60241;-77
2023/03/27 07:00:27;;;;;;;27.20;16.00;;;;;;;6.42;100.00;96359.81;108841;1256;60000;-80
2023/03/27 07:02:55;;;;;;;25.40;16.00;;;;;;;6.47;100.00;96362.30;108800;1258;75885;-79
2023/03/27 07:05:22;;;;;;;20.70;14.40;;;;;;;6.49;100.00;96360.28;108966;1255;69806;-77
2023/03/27 07:07:49;;;;;;;25.20;13.80;;;;;;;6.50;100.00;96364.21;109055;1254;71449;-80
2023/03/27 07:10:15;;;;;;;21.90;13.20;;;;;;;6.49;100.00;96365.71;109035;1255;59905;-77
2023/03/27 07:12:45;;;;;;;30.10;17.90;;;;;;;6.49;100.00;96366.43;109111;1255;59806;-79
2023/03/27 07:15:12;;;;;;;22.80;14.50;;;;;;;6.55;100.00;96368.20;109010;1256;75022;-77
2023/03/27 07:17:43;;;;;;;23.40;15.20;;;;;;;6.59;100.00;96366.27;108662;1255;69722;-77
2023/03/27 07:20:11;;;;;;;24.10;14.30;;;;;;;6.65;100.00;96362.52;108594;1256;72971;-77
2023/03/27 07:22:41;;;;;;;25.10;13.10;;;;;;;6.74;100.00;96359.61;108849;1256;59828;-80
2023/03/27 07:25:08;;;;;;;20.00;13.50;;;;;;;6.83;100.00;96358.07;108990;1255;60200;-80
2023/03/27 07:27:34;;;;;;;16.90;11.60;;;;;;;6.91;100.00;96359.80;108738;1255;76599;-77
2023/03/27 07:30:01;;;;;;;13.40;9.70;;;;;;;6.98;100.00;96358.13;108802;1255;70627;-80
2023/03/27 07:32:31;;;;;;;15.60;10.60;;;;;;;7.07;100.00;96360.48;108838;1255;60571;-79
2023/03/27 07:34:57;;;;;;;19.30;12.70;;;;;;;7.16;100.00;96366.25;108820;1255;59949;-80
2023/03/27 07:37:24;;;;;;;13.90;10.00;;;;;;;7.26;100.00;96368.58;108739;1256;60763;-78
2023/03/27 07:39:51;;;;;;;15.10;11.30;;;;;;;7.21;100.00;96370.91;108627;1256;76299;-79
2023/03/27 07:42:18;;;;;;;18.20;11.80;;;;;;;7.24;100.00;96370.79;108627;1258;60599;-80
2023/03/27 07:44:44;;;;;;;17.20;13.40;;;;;;;7.31;100.00;96372.08;108498;1256;72533;-77
2023/03/27 07:47:11;;;;;;;26.30;18.30;;;;;;;7.36;100.00;96368.14;108650;1255;60158;-80
2023/03/27 07:49:38;;;;;;;24.30;17.90;;;;;;;7.38;100.00;96373.14;108743;1256;61646;-79
2023/03/27 07:52:05;;;;;;;36.30;27.00;;;;;;;7.34;100.00;96374.66;108698;1256;60205;-79
2023/03/27 07:54:31;;;;;;;25.60;17.90;;;;;;;7.28;100.00;96373.53;108900;1255;71039;-80
2023/03/27 07:56:58;;;;;;;20.10;14.60;;;;;;;7.20;100.00;96377.45;108861;1256;60465;-77
2023/03/27 07:59:24;;;;;;;20.10;14.30;;;;;;;7.11;100.00;96381.33;108878;1255;59858;-78
2023/03/27 08:01:51;;;;;;;16.10;11.10;;;;;;;7.00;100.00;96382.64;108907;1259;60565;-80
2023/03/27 08:04:18;;;;;;;17.00;11.20;;;;;;;6.96;100.00;96385.36;108964;1254;60109;-79
2023/03/27 08:06:44;;;;;;;17.00;11.80;;;;;;;6.82;100.00;96386.23;108891;1254;70576;-79
2023/03/27 08:09:11;;;;;;;11.50;7.60;;;;;;;6.73;100.00;96396.06;108872;1255;73211;-79
2023/03/27 08:11:40;;;;;;;14.10;8.50;;;;;;;6.72;100.00;96396.46;108938;1255;60164;-78
2023/03/27 08:14:08;;;;;;;13.30;8.50;;;;;;;6.74;100.00;96398.71;108920;1255;59964;-78
2023/03/27 08:16:35;;;;;;;10.40;7.90;;;;;;;6.75;100.00;96401.38;108911;1255;74678;-80
2023/03/27 08:19:03;;;;;;;11.10;7.70;;;;;;;6.72;100.00;96401.38;108687;1255;72750;-80
2023/03/27 08:21:30;;;;;;;15.20;9.00;;;;;;;6.62;100.00;96402.77;108929;1254;71979;-80
2023/03/27 08:23:57;;;;;;;13.90;10.20;;;;;;;6.54;100.00;96405.37;108913;1254;59957;-78
2023/03/27 08:26:25;;;;;;;25.70;14.90;;;;;;;6.46;100.00;96408.02;108775;1254;60565;-79
2023/03/27 08:28:55;;;;;;;12.70;9.30;;;;;;;6.42;100.00;96408.66;108755;1254;75858;-77
2023/03/27 08:31:21;;;;;;;19.70;10.60;;;;;;;6.39;100.00;96406.06;108785;1254;70696;-78
2023/03/27 08:33:48;;;;;;;18.60;12.20;;;;;;;6.36;100.00;96405.64;108850;1255;60293;-78
2023/03/27 08:36:14;;;;;;;15.20;10.30;;;;;;;6.41;100.00;96406.05;108790;1254;60750;-79
2023/03/27 08:38:42;;;;;;;14.10;9.80;;;;;;;6.44;100.00;96405.52;108836;1254;60076;-79
2023/03/27 08:41:17;;;;;;;16.10;9.70;;;;;;;6.44;100.00;96405.69;108863;1255;74634;-79
2023/03/27 08:43:44;;;;;;;19.60;12.20;;;;;;;6.43;100.00;96406.08;109034;1256;70332;-77
2023/03/27 08:46:27;;;;;;;16.80;10.80;;;;;;;6.44;100.00;96408.69;108953;1255;72703;-78
2023/03/27 08:49:20;;;;;;;10.60;8.10;;;;;;;6.42;100.00;96405.55;108733;1254;60470;-77
2023/03/27 08:51:55;;;;;;;14.10;8.80;;;;;;;6.41;100.00;96409.02;108847;1256;59819;-79
2023/03/27 08:54:30;;;;;;;11.20;8.50;;;;;;;6.42;100.00;96408.40;108919;1255;74462;-77
2023/03/27 08:56:56;;;;;;;15.00;8.40;;;;;;;6.47;100.00;96405.89;108913;1255;70971;-79
2023/03/27 08:59:25;;;;;;;9.30;6.70;;;;;;;6.58;100.00;96405.64;108784;1254;60020;-78
2023/03/27 09:02:10;;;;;;;10.00;7.40;;;;;;;6.60;100.00;96405.77;108787;1255;59872;-79
2023/03/27 09:04:52;;;;;;;10.50;7.80;;;;;;;6.63;100.00;96408.19;108853;1256;59918;-80
2023/03/27 09:07:33;;;;;;;10.00;6.70;;;;;;;6.63;100.00;96406.64;108901;1256;75314;-79
2023/03/27 09:10:29;;;;;;;9.00;6.20;;;;;;;6.52;100.00;96403.53;108715;1255;70668;-77
2023/03/27 09:13:16;;;;;;;10.90;7.30;;;;;;;6.50;100.00;96403.81;108832;1255;70978;-77
2023/03/27 09:15:56;;;;;;;9.90;7.00;;;;;;;6.51;100.00;96402.30;108721;1256;59804;-79
2023/03/27 09:18:34;;;;;;;10.90;8.50;;;;;;;6.45;100.00;96406.20;108813;1256;60358;-79
2023/03/27 09:21:07;;;;;;;10.10;7.90;;;;;;;6.43;100.00;96408.68;108868;1255;75335;-78
2023/03/27 09:23:39;;;;;;;13.80;9.90;;;;;;;6.42;100.00;96411.64;108809;1256;72438;-79
2023/03/27 09:26:13;;;;;;;21.50;13.10;;;;;;;6.43;100.00;96413.77;108782;1258;71698;-77
2023/03/27 09:28:56;;;;;;;33.40;28.50;;;;;;;6.38;100.00;96422.08;108829;1257;60070;-80
2023/03/27 09:31:30;;;;;;;16.30;12.80;;;;;;;6.41;100.00;96423.70;108934;1256;59833;-78
2023/03/27 09:34:00;;;;;;;13.40;8.80;;;;;;;6.32;100.00;96434.64;108727;1256;75340;-79
2023/03/27 09:36:27;;;;;;;9.40;5.80;;;;;;;6.20;100.00;96439.58;108883;1255;71403;-77
2023/03/27 09:38:57;;;;;;;9.90;7.00;;;;;;;6.15;100.00;96447.02;108726;1257;60389;-79
2023/03/27 09:41:56;;;;;;;8.30;5.80;;;;;;;6.00;100.00;96449.42;108864;1255;59790;-80
2023/03/27 09:44:24;;;;;;;9.20;5.80;;;;;;;5.91;100.00;96458.30;108840;1254;60931;-80
2023/03/27 09:50:20;;;;;;;5.00;3.60;;;;;;;5.62;100.00;96467.69;107766;1261;70374;-80
2023/03/27 09:52:47;;;;;;;6.80;4.90;;;;;;;5.54;100.00;96472.65;106011;1260;71697;-78
2023/03/27 09:55:25;;;;;;;6.30;3.70;;;;;;;5.54;100.00;96478.80;106011;1257;62131;-80
2023/03/27 09:57:57;;;;;;;6.10;3.70;;;;;;;5.48;100.00;96482.06;108131;1256;62025;-78
2023/03/27 10:00:32;;;;;;;5.80;3.00;;;;;;;5.50;100.00;96483.77;107256;1257;75920;-78
2023/03/27 10:03:06;;;;;;;5.00;3.00;;;;;;;5.37;100.00;96494.96;106099;1260;69519;-78
2023/03/27 10:05:33;;;;;;;4.40;2.90;;;;;;;5.27;100.00;96498.01;107100;1260;70755;-80
2023/03/27 10:08:00;;;;;;;4.80;3.20;;;;;;;5.32;100.00;96501.73;106155;1257;62476;-78
2023/03/27 10:10:31;;;;;;;4.00;3.40;;;;;;;5.19;100.00;96512.69;106163;1256;62045;-78
2023/03/27 10:12:58;;;;;;;4.30;3.30;;;;;;;5.14;100.00;96511.23;106119;1256;74276;-80
2023/03/27 10:15:37;;;;;;;8.30;5.70;;;;;;;5.09;100.00;96515.24;106227;1257;69924;-80
2023/03/27 10:18:28;;;;;;;8.80;6.30;;;;;;;5.07;100.00;96519.17;106031;1256;72104;-78
2023/03/27 10:20:59;;;;;;;7.80;4.90;;;;;;;5.04;100.00;96517.92;105897;1257;62104;-80
2023/03/27 10:23:26;;;;;;;6.70;4.90;;;;;;;5.01;100.00;96519.98;106190;1259;62034;-79
2023/03/27 10:25:58;;;;;;;9.10;5.30;;;;;;;4.97;100.00;96523.66;105899;1262;75081;-80
2023/03/27 10:28:33;;;;;;;10.20;7.50;;;;;;;4.91;100.00;96522.95;105810;1256;70278;-78
2023/03/27 10:31:01;;;;;;;9.20;5.50;;;;;;;4.91;100.00;96531.59;106008;1257;71586;-80
2023/03/27 10:33:35;;;;;;;10.50;6.80;;;;;;;4.89;100.00;96527.74;106739;1259;62062;-78
2023/03/27 10:36:03;;;;;;;13.20;7.30;;;;;;;4.79;100.00;96531.45;106277;1256;62035;-78
2023/03/27 10:38:30;;;;;;;13.90;9.20;;;;;;;4.76;100.00;96534.42;105839;1257;75954;-78
2023/03/27 10:40:57;;;;;;;15.20;9.90;;;;;;;4.78;100.00;96532.59;105899;1257;71581;-79
2023/03/27 10:43:32;;;;;;;13.60;8.10;;;;;;;4.82;100.00;96540.23;106101;1259;62045;-79
2023/03/27 10:46:03;;;;;;;12.70;8.80;;;;;;;4.82;100.00;96544.16;105830;1259;62043;-78
2023/03/27 10:48:50;;;;;;;15.00;9.10;;;;;;;4.80;100.00;96545.25;106107;1259;60603;-79
2023/03/27 10:51:24;;;;;;;13.40;8.10;;;;;;;4.75;100.00;96548.22;106057;1259;74180;-77
2023/03/27 10:53:55;;;;;;;13.80;8.10;;;;;;;4.70;100.00;96553.13;106232;1262;70430;-80
2023/03/27 10:56:26;;;;;;;19.10;11.80;;;;;;;4.53;100.00;96564.88;106095;1257;72652;-79
2023/03/27 10:59:00;;;;;;;20.10;12.90;;;;;;;4.37;100.00;96573.97;106057;1262;62092;-79
2023/03/27 11:01:30;;;;;;;24.00;14.00;;;;;;;4.08;100.00;96592.94;106183;1257;62054;-78
2023/03/27 11:04:03;;;;;;;23.40;12.80;;;;;;;3.90;100.00;96599.52;106082;1261;75322;-79
2023/03/27 11:06:32;;;;;;;35.10;18.30;;;;;;;3.79;100.00;96612.56;106056;1257;71167;-79
2023/03/27 11:09:22;;;;;;;31.30;20.50;;;;;;;3.73;100.00;96623.66;105981;1266;71908;-80
2023/03/27 11:11:58;;;;;;;29.20;16.60;;;;;;;3.57;100.00;96638.77;106214;1259;62601;-80
2023/03/27 11:15:06;;;;;;;45.30;25.70;;;;;;;3.37;100.00;96648.53;106321;1257;61886;-80
2023/03/27 11:17:39;;;;;;;43.70;24.30;;;;;;;3.22;100.00;96657.06;106174;1256;74149;-79
2023/03/27 11:20:15;;;;;;;55.30;28.40;;;;;;;3.10;100.00;96662.14;106488;1256;70537;-78
2023/03/27 11:22:43;;;;;;;39.90;22.70;;;;;;;3.01;100.00;96673.94;108877;1256;71842;-80
2023/03/27 11:25:24;;;;;;;37.30;22.10;;;;;;;2.87;100.00;96672.56;108883;1255;59706;-79
2023/03/27 11:28:04;;;;;;;39.20;21.90;;;;;;;2.81;100.00;96690.20;107125;1256;62067;-78
2023/03/27 11:30:31;;;;;;;49.50;23.70;;;;;;;2.74;100.00;96699.90;105899;1256;74006;-79
2023/03/27 11:33:14;;;;;;;39.80;23.60;;;;;;;2.65;100.00;96699.44;106106;1262;70971;-79
2023/03/27 11:35:43;;;;;;;39.30;25.20;;;;;;;2.48;100.00;96706.53;105807;1257;72387;-80
2023/03/27 11:38:17;;;;;;;35.10;21.00;;;;;;;2.43;100.00;96715.92;105693;1257;62086;-78